createdAt,value
2022-12-14T05:30:18.163Z,100543.09
2022-12-14T07:23:56.514Z,100446.94
2022-12-14T07:26:24.887Z,100438.56
2022-12-14T07:28:52.578Z,100440.19
2022-12-14T07:31:20.800Z,100433.44
2022-12-14T07:33:48.575Z,100420.66
2022-12-14T07:36:16.572Z,100423.44
2022-12-14T07:39:06.157Z,100422.28
2022-12-14T07:41:35.160Z,100418.69
2022-12-14T07:44:02.769Z,100416.72
2022-12-14T07:46:30.811Z,100417.84
2022-12-14T07:48:58.701Z,100429.03
2022-12-14T07:51:26.682Z,100429.03
2022-12-14T07:53:55.099Z,100425.09
2022-12-14T07:56:23.149Z,100425.09
2022-12-14T07:58:52.212Z,100432.28
2022-12-14T08:46:23.660Z,100399.16
2022-12-14T08:48:52.439Z,100404.75
2022-12-14T08:51:20.339Z,100402.75
2022-12-14T08:53:48.729Z,100390.78
2022-12-14T08:56:17.091Z,100397.97
2022-12-14T08:58:44.699Z,100397.19
2022-12-14T09:46:46.664Z,100352.53
2022-12-14T09:49:15.399Z,100347.66
2022-12-14T09:51:43.152Z,100343.69
2022-12-14T09:54:12.708Z,100341.38
2022-12-14T09:56:40.341Z,100335.78
2022-12-14T09:59:07.965Z,100330.19
2022-12-14T10:46:55.721Z,100272.03
2022-12-14T10:49:24.374Z,100264.84
2022-12-14T10:51:52.272Z,100272.03
2022-12-14T10:54:23.360Z,100268.06
2022-12-14T10:56:51.018Z,100268.06
2022-12-14T10:59:25.893Z,100256.91
2022-12-14T11:04:31.773Z,100251.78
2022-12-14T11:06:59.588Z,100252.91
2022-12-14T11:09:27.214Z,100254.56
2022-12-14T11:12:01.043Z,100246.19
2022-12-14T11:14:28.758Z,100237.81
2022-12-14T11:16:56.621Z,100244.22
2022-12-14T11:19:24.761Z,100246.63
2022-12-14T11:22:05.087Z,100241.41
2022-12-14T11:24:32.695Z,100236.63
2022-12-14T11:27:01.037Z,100231.06
2022-12-14T11:29:30.231Z,100231.06
2022-12-14T11:31:57.896Z,100229.88
2022-12-14T11:34:27.046Z,100228.25
2022-12-14T11:36:56.029Z,100229.88
2022-12-14T11:39:23.938Z,100225.47
2022-12-14T11:41:52.219Z,100228.25
2022-12-14T11:44:23.613Z,100227.81
2022-12-14T11:46:53.334Z,100223.88
2022-12-14T11:49:21.826Z,100228.25
2022-12-14T11:52:00.507Z,100224.28
2022-12-14T11:54:28.173Z,100218.72
2022-12-14T11:56:58.065Z,100221.13
2022-12-14T11:59:25.702Z,100218.72
2022-12-14T12:01:53.358Z,100213.13
2022-12-14T12:04:21.347Z,100211.16
2022-12-14T12:06:48.869Z,100213.13
2022-12-14T12:09:34.190Z,100209.16
2022-12-14T12:12:01.827Z,100209.16
2022-12-14T12:14:30.647Z,100217.53
2022-12-14T12:16:58.314Z,100213.94
2022-12-14T12:19:26.283Z,100209.16
2022-12-14T12:21:53.858Z,100196.38
2022-12-14T12:24:23.437Z,100203.16
2022-12-14T12:26:51.546Z,100203.56
2022-12-14T12:29:21.844Z,100199.97
2022-12-14T12:31:51.700Z,100186.84
2022-12-14T12:34:20.124Z,100189.63
2022-12-14T12:37:17.513Z,100185.22
2022-12-14T12:39:36.926Z,100178.03
2022-12-14T12:42:06.236Z,100183.63
2022-12-14T12:44:39.413Z,100178.03
2022-12-14T12:47:25.244Z,100184.41
2022-12-14T12:49:55.833Z,100178.84
2022-12-14T12:52:24.251Z,100174.06
2022-12-14T12:54:55.773Z,100178.03
2022-12-14T12:57:23.447Z,100174.06
2022-12-14T12:59:51.519Z,100178.47
2022-12-14T13:02:21.279Z,100176.84
2022-12-14T13:04:52.686Z,100174.06
2022-12-14T13:07:23.528Z,100168.47
2022-12-14T13:09:51.416Z,100165.69
2022-12-14T13:12:22.291Z,100162.91
2022-12-14T13:14:50.351Z,100162.09
2022-12-14T13:17:23.371Z,100152.91
2022-12-14T13:19:54.676Z,100143.75
2022-12-14T13:22:24.358Z,100150.13
2022-12-14T13:24:58.695Z,100142.94
2022-12-14T13:28:00.322Z,100148.13
2022-12-14T13:30:33.504Z,100148.13
2022-12-14T13:33:06.195Z,100151.72
2022-12-14T13:35:37.441Z,100142.19
2022-12-14T13:38:11.637Z,100146.16
2022-12-14T13:40:46.046Z,100147.75
2022-12-14T13:43:18.223Z,100135.78
2022-12-14T13:45:49.512Z,100138.59
2022-12-14T13:48:19.722Z,100137.78
2022-12-14T13:50:54.307Z,100136.59
2022-12-14T13:53:28.431Z,100142.19
2022-12-14T13:55:56.522Z,100127.78
2022-12-14T13:58:26.708Z,100131.00
2022-12-14T14:00:56.803Z,100136.59
2022-12-14T14:03:43.124Z,100131.00
2022-12-14T14:06:16.254Z,100129.41
2022-12-14T14:08:44.404Z,100127.78
2022-12-14T14:11:46.304Z,100125.44
2022-12-14T14:14:17.241Z,100125.44
2022-12-14T14:16:46.369Z,100117.34
2022-12-14T14:19:19.369Z,100111.84
2022-12-14T14:22:22.244Z,100109.88
2022-12-14T14:24:58.209Z,100114.28
2022-12-14T14:27:27.145Z,100106.28
2022-12-14T14:29:54.701Z,100103.09
2022-12-14T14:32:33.459Z,100105.91
2022-12-14T14:35:01.293Z,100105.09
2022-12-14T14:37:30.459Z,100096.72
2022-12-14T14:40:23.944Z,100103.09
2022-12-14T14:42:59.009Z,100104.28
2022-12-14T14:45:28.811Z,100103.91
2022-12-14T14:47:58.183Z,100105.09
2022-12-14T14:50:27.229Z,100100.31
2022-12-14T14:52:59.135Z,100099.50
2022-12-14T14:55:54.321Z,100104.28
2022-12-14T14:58:24.417Z,100103.09
2022-12-14T15:00:54.111Z,100106.28
2022-12-14T15:03:25.501Z,100112.66
2022-12-14T15:05:53.338Z,100112.66
2022-12-14T15:08:21.735Z,100108.25
2022-12-14T15:10:49.562Z,100116.63
2022-12-14T15:13:18.354Z,100109.88
2022-12-14T15:15:46.239Z,100106.66
2022-12-14T15:18:17.600Z,100105.47
2022-12-14T15:20:51.277Z,100105.47
2022-12-14T15:23:18.855Z,100106.28
2022-12-14T15:25:46.443Z,100101.50
2022-12-14T15:28:14.808Z,100101.06
2022-12-14T15:30:42.626Z,100104.28
2022-12-14T15:33:10.430Z,100106.28
2022-12-14T15:35:39.804Z,100106.28
2022-12-14T15:38:09.148Z,100107.09
2022-12-14T15:40:36.762Z,100103.88
2022-12-14T15:43:04.860Z,100106.28
2022-12-14T15:45:33.233Z,100099.91
2022-12-14T15:48:13.089Z,100099.91
2022-12-14T15:50:40.724Z,100096.28
2022-12-14T15:53:12.462Z,100102.69
2022-12-14T15:55:41.519Z,100095.50
2022-12-14T15:58:10.310Z,100092.69
2022-12-14T16:00:40.512Z,100098.28
2022-12-14T16:03:11.408Z,100103.88
2022-12-14T16:05:39.214Z,100103.88
2022-12-14T16:08:06.874Z,100098.28
2022-12-14T16:10:36.401Z,100092.69
2022-12-14T16:13:04.572Z,100087.94
2022-12-14T16:15:32.352Z,100087.13
2022-12-14T16:18:02.546Z,100087.13
2022-12-14T16:20:31.807Z,100084.34
2022-12-14T16:23:03.110Z,100082.34
2022-12-14T16:25:30.811Z,100075.97
2022-12-14T16:27:59.772Z,100075.97
2022-12-14T16:30:28.479Z,100079.91
2022-12-14T16:33:04.997Z,100079.06
2022-12-14T16:35:33.891Z,100080.72
2022-12-14T16:38:05.811Z,100080.72
2022-12-14T16:40:34.528Z,100089.47
2022-12-14T16:43:03.856Z,100085.47
2022-12-14T16:45:53.756Z,100078.28
2022-12-14T16:48:23.502Z,100083.88
2022-12-14T16:51:03.616Z,100085.47
2022-12-14T16:53:37.984Z,100096.66
2022-12-14T16:56:06.734Z,100099.44
2022-12-14T16:58:35.743Z,100101.06
2022-12-14T17:01:03.869Z,100096.66
2022-12-14T17:03:32.127Z,100095.78
2022-12-14T17:06:00.802Z,100091.81
2022-12-14T17:08:28.385Z,100095.03
2022-12-14T17:10:56.018Z,100095.03
2022-12-14T17:13:23.761Z,100087.84
2022-12-14T17:15:55.818Z,100095.03
2022-12-14T17:18:23.810Z,100084.69
2022-12-14T17:20:51.716Z,100089.47
2022-12-14T17:23:19.408Z,100089.47
2022-12-14T17:25:48.125Z,100095.03
2022-12-14T17:28:20.404Z,100101.41
2022-12-14T17:30:48.579Z,100100.63
2022-12-14T17:33:17.631Z,100099.00
2022-12-14T17:35:45.246Z,100106.19
2022-12-14T17:38:14.290Z,100093.44
2022-12-14T17:40:42.325Z,100098.22
2022-12-14T17:43:10.303Z,100099.00
2022-12-14T17:45:37.894Z,100097.41
2022-12-14T17:48:05.728Z,100097.41
2022-12-14T17:50:34.707Z,100092.63
2022-12-14T17:53:02.306Z,100098.22
2022-12-14T17:55:30.175Z,100097.41
2022-12-14T17:57:57.957Z,100099.00
2022-12-14T18:00:39.833Z,100103.78
2022-12-14T18:03:07.589Z,100103.72
2022-12-14T18:05:36.713Z,100106.56
2022-12-14T18:08:04.627Z,100097.41
2022-12-14T18:10:32.494Z,100102.97
2022-12-14T18:13:01.612Z,100108.56
2022-12-14T18:15:29.811Z,100101.38
2022-12-14T18:17:57.466Z,100097.41
2022-12-14T18:20:25.457Z,100098.59
2022-12-14T18:22:54.587Z,100102.53
2022-12-14T18:25:23.524Z,100099.72
2022-12-14T18:27:51.806Z,100104.16
2022-12-14T18:30:19.391Z,100097.78
2022-12-14T18:32:46.959Z,100095.78
2022-12-14T18:35:16.880Z,100095.00
2022-12-14T18:37:44.496Z,100094.16
2022-12-14T18:40:19.966Z,100095.78
2022-12-14T18:42:47.850Z,100095.00
2022-12-14T18:45:16.152Z,100098.94
2022-12-14T18:47:43.917Z,100093.34
2022-12-14T18:50:11.883Z,100092.53
2022-12-14T18:52:39.715Z,100098.13
2022-12-14T18:55:07.997Z,100098.13
2022-12-14T18:57:37.055Z,100098.13
2022-12-14T19:00:05.138Z,100105.31
2022-12-14T19:02:33.341Z,100104.50
2022-12-14T19:05:01.431Z,100112.88
2022-12-14T19:07:29.681Z,100110.91
2022-12-14T19:09:57.390Z,100110.09
2022-12-14T19:12:25.133Z,100110.09
2022-12-14T19:14:54.095Z,100106.81
2022-12-14T19:17:21.760Z,100110.09
2022-12-14T19:19:49.458Z,100114.88
2022-12-14T19:22:17.159Z,100114.88
2022-12-14T19:24:49.162Z,100120.44
2022-12-14T19:27:42.622Z,100113.25
2022-12-14T19:30:10.256Z,100118.84
2022-12-14T19:32:37.836Z,100122.81
2022-12-14T19:35:05.984Z,100111.66
2022-12-14T19:37:33.534Z,100116.06
2022-12-14T19:40:02.484Z,100106.06
2022-12-14T19:42:31.044Z,100100.50
2022-12-14T19:44:58.819Z,100099.69
2022-12-14T19:47:27.853Z,100111.66
2022-12-14T19:49:55.521Z,100106.06
2022-12-14T19:52:23.077Z,100114.44
2022-12-14T19:54:51.112Z,100118.84
2022-12-14T19:57:18.751Z,100108.88
2022-12-14T19:59:46.351Z,100117.22
2022-12-14T20:02:14.304Z,100122.81
2022-12-14T20:04:43.359Z,100123.63
2022-12-14T20:07:11.008Z,100122.81
2022-12-14T20:09:38.699Z,100115.16
2022-12-14T20:12:10.272Z,100111.66
2022-12-14T20:14:39.885Z,100112.84
2022-12-14T20:17:08.224Z,100122.00
2022-12-14T20:19:36.064Z,100127.59
2022-12-14T20:22:05.016Z,100132.38
2022-12-14T20:24:32.658Z,100139.56
2022-12-14T20:27:00.298Z,100139.56
2022-12-14T20:29:28.322Z,100140.75
2022-12-14T20:31:56.347Z,100135.16
2022-12-14T20:34:24.079Z,100133.16
2022-12-14T20:36:51.679Z,100140.75
2022-12-14T20:39:20.632Z,100129.56
2022-12-14T20:41:48.285Z,100128.41
2022-12-14T20:44:16.204Z,100127.59
2022-12-14T20:46:44.816Z,100125.19
2022-12-14T20:49:12.815Z,100125.19
2022-12-14T20:51:40.428Z,100129.56
2022-12-14T20:54:08.935Z,100133.53
2022-12-14T20:56:37.941Z,100129.91
2022-12-14T20:59:05.569Z,100140.28
2022-12-14T21:01:33.631Z,100129.13
2022-12-14T21:04:01.739Z,100132.38
2022-12-14T21:06:29.505Z,100130.75
2022-12-14T21:09:05.410Z,100130.75
2022-12-14T21:11:50.990Z,100141.53
2022-12-14T21:14:20.177Z,100132.38
2022-12-14T21:16:47.880Z,100143.53
2022-12-14T21:19:16.764Z,100135.16
2022-12-14T21:21:48.280Z,100143.53
2022-12-14T21:24:37.532Z,100127.97
2022-12-14T21:27:08.544Z,100147.50
2022-12-14T21:29:37.561Z,100147.50
2022-12-14T21:32:06.032Z,100140.28
2022-12-14T21:34:33.690Z,100148.66
2022-12-14T21:37:01.254Z,100147.03
2022-12-14T21:39:29.060Z,100144.25
2022-12-14T21:42:12.783Z,100145.84
2022-12-14T21:44:42.062Z,100149.84
2022-12-14T21:47:10.059Z,100144.25
2022-12-14T21:49:37.733Z,100153.81
2022-12-14T21:52:07.531Z,100157.03
2022-12-14T21:54:35.840Z,100162.59
2022-12-14T21:57:21.058Z,100161.00
2022-12-14T21:59:49.995Z,100166.56
2022-12-14T22:02:18.201Z,100159.38
2022-12-14T22:04:46.704Z,100164.16
2022-12-14T22:07:15.107Z,100159.38
2022-12-14T22:09:43.209Z,100164.97
2022-12-14T22:12:10.990Z,100159.75
2022-12-14T22:14:38.855Z,100168.94
2022-12-14T22:17:08.068Z,100159.38
2022-12-14T22:19:35.861Z,100157.78
2022-12-14T22:22:03.516Z,100170.53
2022-12-14T22:24:31.177Z,100168.13
2022-12-14T22:26:59.242Z,100174.50
2022-12-14T22:29:26.862Z,100172.91
2022-12-14T22:31:54.691Z,100176.50
2022-12-14T22:34:23.970Z,100178.47
2022-12-14T22:36:52.925Z,100178.47
2022-12-14T22:39:20.561Z,100184.06
2022-12-14T22:41:48.155Z,100178.81
2022-12-14T22:44:15.806Z,100182.44
2022-12-14T22:46:43.766Z,100182.44
2022-12-14T22:49:11.427Z,100183.59
2022-12-14T22:51:41.123Z,100180.81
2022-12-14T22:54:08.712Z,100180.81
2022-12-14T22:56:37.611Z,100175.22
2022-12-14T22:59:06.396Z,100175.22
2022-12-14T23:01:34.202Z,100175.22
2022-12-14T23:04:02.450Z,100173.63
2022-12-14T23:06:30.456Z,100171.97
2022-12-14T23:09:17.962Z,100173.63
2022-12-14T23:12:03.391Z,100177.56
2022-12-14T23:14:48.602Z,100177.56
2022-12-14T23:17:33.753Z,100181.19
2022-12-14T23:20:18.695Z,100183.13
2022-12-14T23:23:03.780Z,100185.13
2022-12-14T23:25:52.692Z,100194.31
2022-12-14T23:28:37.819Z,100198.28
2022-12-14T23:45:57.062Z,100191.06
2022-12-14T23:48:42.208Z,100191.06
2022-12-14T23:51:27.387Z,100191.06
2022-12-14T23:54:12.403Z,100195.03
2022-12-14T23:56:57.667Z,100196.63
